createdAt,value
2017-10-27T00:00:12.112Z,18.76
2017-10-27T00:00:25.534Z,18.69
2017-10-27T00:00:38.416Z,18.75
2017-10-27T00:00:50.761Z,18.79
2017-10-27T00:01:04.204Z,18.74
2017-10-27T00:01:17.598Z,18.81
2017-10-27T00:01:31.022Z,18.72
2017-10-27T00:01:43.893Z,18.71
2017-10-27T00:01:57.283Z,18.76
2017-10-27T00:02:10.775Z,18.79
2017-10-27T00:02:23.149Z,18.66
2017-10-27T00:02:36.026Z,18.78
2017-10-27T00:02:49.446Z,18.74
2017-10-27T00:03:02.352Z,18.79
2017-10-27T00:03:15.718Z,18.82
2017-10-27T00:03:29.152Z,18.79
2017-10-27T00:03:42.572Z,18.81
2017-10-27T00:03:55.717Z,18.81
2017-10-27T00:04:08.046Z,18.78
2017-10-27T00:04:21.500Z,18.84
2017-10-27T00:04:35.042Z,18.81
2017-10-27T00:04:48.444Z,18.75
2017-10-27T00:05:01.340Z,18.76
2017-10-27T00:05:14.730Z,18.81
2017-10-27T00:05:27.639Z,18.78
2017-10-27T00:05:40.545Z,18.71
2017-10-27T00:05:53.995Z,18.76
2017-10-27T00:06:06.880Z,18.68
2017-10-27T00:06:19.792Z,18.81
2017-10-27T00:06:33.186Z,18.81
2017-10-27T00:06:46.036Z,18.65
2017-10-27T00:06:58.913Z,18.69
2017-10-27T00:07:11.846Z,18.72
2017-10-27T00:07:23.643Z,18.71
2017-10-27T00:07:37.063Z,18.76
2017-10-27T00:07:50.488Z,18.74
2017-10-27T00:08:03.379Z,18.71
2017-10-27T00:08:16.254Z,18.69
2017-10-27T00:08:29.710Z,18.65
2017-10-27T00:08:43.359Z,18.72
2017-10-27T00:08:56.287Z,18.68
2017-10-27T00:09:11.201Z,18.66
2017-10-27T00:09:24.865Z,18.68
2017-10-27T00:09:37.750Z,18.66
2017-10-27T00:09:50.664Z,18.66
2017-10-27T00:10:02.961Z,18.71
2017-10-27T00:10:15.324Z,18.63
2017-10-27T00:10:27.746Z,18.65
2017-10-27T00:10:41.259Z,18.65
2017-10-27T00:10:54.962Z,18.63
2017-10-27T00:11:08.389Z,18.63
2017-10-27T00:11:21.344Z,18.71
2017-10-27T00:11:34.234Z,18.72
2017-10-27T00:11:46.554Z,18.65
2017-10-27T00:12:00.017Z,18.63
2017-10-27T00:12:13.432Z,18.68
2017-10-27T00:12:26.347Z,18.68
2017-10-27T00:12:39.786Z,18.68
2017-10-27T00:12:53.239Z,18.57
2017-10-27T00:13:05.036Z,18.63
2017-10-27T00:13:18.434Z,18.57
2017-10-27T00:13:31.332Z,18.53
2017-10-27T00:13:44.791Z,18.63
2017-10-27T00:13:58.256Z,18.59
2017-10-27T00:14:11.133Z,18.56
2017-10-27T00:14:24.579Z,18.63
2017-10-27T00:14:37.844Z,18.6
2017-10-27T00:14:50.736Z,18.5
2017-10-27T00:15:04.147Z,18.56
2017-10-27T00:15:17.585Z,18.56
2017-10-27T00:15:30.560Z,18.53
2017-10-27T00:15:44.035Z,18.56
2017-10-27T00:15:56.966Z,18.6
2017-10-27T00:16:09.333Z,18.54
2017-10-27T00:16:22.725Z,18.53
2017-10-27T00:16:36.154Z,18.57
2017-10-27T00:16:49.620Z,18.53
2017-10-27T00:17:03.051Z,18.57
2017-10-27T00:17:16.010Z,18.57
2017-10-27T00:17:28.906Z,18.59
2017-10-27T00:17:41.793Z,18.56
2017-10-27T00:17:54.682Z,18.53
2017-10-27T00:18:08.141Z,18.56
2017-10-27T00:18:21.001Z,18.56
2017-10-27T00:18:34.459Z,18.56
2017-10-27T00:18:47.894Z,18.54
2017-10-27T00:19:01.280Z,18.59
2017-10-27T00:19:14.755Z,18.54
2017-10-27T00:19:27.589Z,18.56
2017-10-27T00:19:41.254Z,18.61
2017-10-27T00:19:54.234Z,18.56
2017-10-27T00:20:07.700Z,18.54
2017-10-27T00:20:21.166Z,18.56
2017-10-27T00:20:34.598Z,18.54
2017-10-27T00:20:48.040Z,18.57
2017-10-27T00:21:01.467Z,18.57
2017-10-27T00:21:14.320Z,18.6
2017-10-27T00:21:27.769Z,18.6
2017-10-27T00:21:40.612Z,18.53
2017-10-27T00:21:54.317Z,18.56
2017-10-27T00:22:07.758Z,18.57
2017-10-27T00:22:20.708Z,18.57
2017-10-27T00:22:34.139Z,18.57
2017-10-27T00:22:47.560Z,18.65
2017-10-27T00:23:01.052Z,18.59
2017-10-27T00:23:14.477Z,18.57
2017-10-27T00:23:27.373Z,18.61
2017-10-27T00:23:40.296Z,18.53
2017-10-27T00:23:53.762Z,18.5
2017-10-27T00:24:07.183Z,18.47
2017-10-27T00:24:20.103Z,18.51
2017-10-27T00:24:33.600Z,18.47
2017-10-27T00:24:46.506Z,18.41
2017-10-27T00:24:59.928Z,18.39
2017-10-27T00:25:12.319Z,18.42
2017-10-27T00:25:25.297Z,18.39
2017-10-27T00:25:38.221Z,18.45
2017-10-27T00:25:51.711Z,18.41
2017-10-27T00:26:04.592Z,18.45
2017-10-27T00:26:16.366Z,18.44
2017-10-27T00:26:29.288Z,18.47
2017-10-27T00:26:42.163Z,18.45
2017-10-27T00:26:55.062Z,18.36
2017-10-27T00:27:07.991Z,18.42
2017-10-27T00:27:20.886Z,18.38
2017-10-27T00:27:34.399Z,18.41
2017-10-27T00:27:47.803Z,18.44
2017-10-27T00:28:01.201Z,18.42
2017-10-27T00:28:15.064Z,18.45
2017-10-27T00:28:28.460Z,18.49
2017-10-27T00:28:41.870Z,18.45
2017-10-27T00:28:55.366Z,18.49
2017-10-27T00:29:08.833Z,18.44
2017-10-27T00:29:22.275Z,18.47
2017-10-27T00:29:35.949Z,18.39
2017-10-27T00:29:49.357Z,18.41
2017-10-27T00:30:02.277Z,18.44
2017-10-27T00:30:15.178Z,18.39
2017-10-27T00:30:28.615Z,18.45
2017-10-27T00:30:41.476Z,18.38
2017-10-27T00:30:54.935Z,18.41
2017-10-27T00:31:07.797Z,18.45
2017-10-27T00:31:20.156Z,18.42
2017-10-27T00:31:33.632Z,18.45
2017-10-27T00:31:46.714Z,18.39
2017-10-27T00:32:00.168Z,18.42
2017-10-27T00:32:13.607Z,18.45
2017-10-27T00:32:27.064Z,18.45
2017-10-27T00:32:39.947Z,18.39
2017-10-27T00:32:53.403Z,18.45
2017-10-27T00:33:06.304Z,18.49
2017-10-27T00:33:18.708Z,18.47
2017-10-27T00:33:32.086Z,18.49
2017-10-27T00:33:45.002Z,18.47
2017-10-27T00:33:58.518Z,18.54
2017-10-27T00:34:11.927Z,18.47
2017-10-27T00:34:25.579Z,18.53
2017-10-27T00:34:38.278Z,18.5
2017-10-27T00:34:51.673Z,18.53
2017-10-27T00:35:03.502Z,18.45
2017-10-27T00:35:15.360Z,18.54
2017-10-27T00:35:28.261Z,18.5
2017-10-27T00:35:41.705Z,18.49
2017-10-27T00:35:54.569Z,18.49
2017-10-27T00:36:08.000Z,18.47
2017-10-27T00:36:20.914Z,18.53
2017-10-27T00:36:33.824Z,18.51
2017-10-27T00:36:46.756Z,18.61
2017-10-27T00:36:59.601Z,18.63
2017-10-27T00:37:13.108Z,18.56
2017-10-27T00:37:25.998Z,18.6
2017-10-27T00:37:39.430Z,18.56
2017-10-27T00:37:52.292Z,18.59
2017-10-27T00:38:05.155Z,18.63
2017-10-27T00:38:17.015Z,18.6
2017-10-27T00:38:30.417Z,18.68
2017-10-27T00:38:43.913Z,18.61
2017-10-27T00:38:56.820Z,18.68
2017-10-27T00:39:09.756Z,18.68
2017-10-27T00:39:23.236Z,18.71
2017-10-27T00:39:36.090Z,18.72
2017-10-27T00:39:49.576Z,18.69
2017-10-27T00:40:03.023Z,18.66
2017-10-27T00:40:16.452Z,18.69
2017-10-27T00:40:29.405Z,18.71
2017-10-27T00:40:41.834Z,18.68
2017-10-27T00:40:55.291Z,18.66
2017-10-27T00:41:08.194Z,18.71
2017-10-27T00:41:21.845Z,18.71
2017-10-27T00:41:35.288Z,18.71
2017-10-27T00:41:48.744Z,18.65
2017-10-27T00:42:01.838Z,18.68
2017-10-27T00:42:14.723Z,18.66
2017-10-27T00:42:27.663Z,18.66
2017-10-27T00:42:41.157Z,18.68
2017-10-27T00:42:54.608Z,18.68
2017-10-27T00:43:08.039Z,18.65
2017-10-27T00:43:20.962Z,18.66
2017-10-27T00:43:34.424Z,18.69
2017-10-27T00:43:47.897Z,18.72
2017-10-27T00:44:00.779Z,18.68
2017-10-27T00:44:13.162Z,18.69
2017-10-27T00:44:26.069Z,18.72
2017-10-27T00:44:39.149Z,18.69
2017-10-27T00:44:53.004Z,18.69
2017-10-27T00:45:06.641Z,18.71
2017-10-27T00:45:20.299Z,18.69
2017-10-27T00:45:33.711Z,18.68
2017-10-27T00:45:47.171Z,18.69
2017-10-27T00:46:00.097Z,18.69
2017-10-27T00:46:13.069Z,18.74
2017-10-27T00:46:26.449Z,18.74
2017-10-27T00:46:39.392Z,18.71
2017-10-27T00:46:51.696Z,18.68
2017-10-27T00:47:04.575Z,18.68
2017-10-27T00:47:17.428Z,18.66
2017-10-27T00:47:30.864Z,18.68
2017-10-27T00:47:44.287Z,18.66
2017-10-27T00:47:57.193Z,18.71
2017-10-27T00:48:10.057Z,18.66
2017-10-27T00:48:22.949Z,18.66
2017-10-27T00:48:36.379Z,18.65
2017-10-27T00:48:49.833Z,18.66
2017-10-27T00:49:02.740Z,18.71
2017-10-27T00:49:16.165Z,18.69
2017-10-27T00:49:28.581Z,18.68
2017-10-27T00:49:41.479Z,18.66
2017-10-27T00:49:54.508Z,18.69
2017-10-27T00:50:07.982Z,18.65
2017-10-27T00:50:20.860Z,18.68
2017-10-27T00:50:33.702Z,18.63
2017-10-27T00:50:47.118Z,18.65
2017-10-27T00:51:00.017Z,18.66
2017-10-27T00:51:12.882Z,18.66
2017-10-27T00:51:25.744Z,18.66
2017-10-27T00:51:39.177Z,18.69
2017-10-27T00:51:51.553Z,18.68
2017-10-27T00:52:05.010Z,18.65
2017-10-27T00:52:18.462Z,18.57
2017-10-27T00:52:31.916Z,18.69
2017-10-27T00:52:45.335Z,18.71
2017-10-27T00:52:58.812Z,18.57
2017-10-27T00:53:11.768Z,18.65
2017-10-27T00:53:24.672Z,18.6
2017-10-27T00:53:38.158Z,18.56
2017-10-27T00:53:51.003Z,18.53
2017-10-27T00:54:04.440Z,18.6
2017-10-27T00:54:17.869Z,18.6
2017-10-27T00:54:31.289Z,18.5
2017-10-27T00:54:44.767Z,18.59
2017-10-27T00:54:57.611Z,18.53
2017-10-27T00:55:10.478Z,18.57
2017-10-27T00:55:23.958Z,18.5
2017-10-27T00:55:37.414Z,18.51
2017-10-27T00:55:50.832Z,18.54
2017-10-27T00:56:03.932Z,18.59
2017-10-27T00:56:16.807Z,18.42
2017-10-27T00:56:30.229Z,18.47
2017-10-27T00:56:43.645Z,18.42
2017-10-27T00:56:57.149Z,18.47
2017-10-27T00:57:10.705Z,18.44
2017-10-27T00:57:23.632Z,18.36
2017-10-27T00:57:36.573Z,18.42
2017-10-27T00:57:49.491Z,18.42
2017-10-27T00:58:01.882Z,18.45
2017-10-27T00:58:14.236Z,18.45
2017-10-27T00:58:27.665Z,18.42
2017-10-27T00:58:41.147Z,18.45
2017-10-27T00:58:54.563Z,18.44
2017-10-27T00:59:07.492Z,18.39
2017-10-27T00:59:20.918Z,18.45
2017-10-27T00:59:34.545Z,18.44
2017-10-27T00:59:48.008Z,18.49
2017-10-27T01:00:01.608Z,18.45
2017-10-27T01:00:15.100Z,18.47
2017-10-27T01:00:28.588Z,18.5
2017-10-27T01:00:42.066Z,18.45
2017-10-27T01:00:54.987Z,18.45
2017-10-27T01:01:07.914Z,18.6
2017-10-27T01:01:21.342Z,18.49
2017-10-27T01:01:35.019Z,18.47
2017-10-27T01:01:48.476Z,18.56
2017-10-27T01:02:01.897Z,18.5
2017-10-27T01:02:14.766Z,18.57
2017-10-27T01:02:27.691Z,18.45
2017-10-27T01:02:40.592Z,18.53
2017-10-27T01:02:53.507Z,18.44
2017-10-27T01:03:07.032Z,18.45
2017-10-27T01:03:20.500Z,18.42
2017-10-27T01:03:33.373Z,18.6
2017-10-27T01:03:46.261Z,18.49
2017-10-27T01:03:58.608Z,18.57
2017-10-27T01:04:11.494Z,18.47
2017-10-27T01:04:24.964Z,18.5
2017-10-27T01:04:38.491Z,18.51
2017-10-27T01:04:50.848Z,18.6
2017-10-27T01:05:03.405Z,18.57
2017-10-27T01:05:16.288Z,18.59
2017-10-27T01:05:29.689Z,18.53
2017-10-27T01:05:43.095Z,18.6
2017-10-27T01:05:55.995Z,18.6
2017-10-27T01:06:09.088Z,18.59
2017-10-27T01:06:22.029Z,18.56
2017-10-27T01:06:35.680Z,18.59
2017-10-27T01:06:49.125Z,18.63
2017-10-27T01:07:02.019Z,18.63
2017-10-27T01:07:15.473Z,18.61
2017-10-27T01:07:28.933Z,18.56
2017-10-27T01:07:42.361Z,18.56
2017-10-27T01:07:55.255Z,18.59
2017-10-27T01:08:08.167Z,18.54
2017-10-27T01:08:21.627Z,18.56
2017-10-27T01:08:34.501Z,18.57
2017-10-27T01:08:47.881Z,18.56
2017-10-27T01:09:00.781Z,18.6
2017-10-27T01:09:13.672Z,18.59
2017-10-27T01:09:27.059Z,18.65
2017-10-27T01:09:39.986Z,18.68
2017-10-27T01:09:53.392Z,18.68
2017-10-27T01:10:06.286Z,18.69
2017-10-27T01:10:19.142Z,18.68
2017-10-27T01:10:32.047Z,18.72
2017-10-27T01:10:44.955Z,18.69
2017-10-27T01:10:58.404Z,18.71
2017-10-27T01:11:11.844Z,18.72
2017-10-27T01:11:24.709Z,18.79
2017-10-27T01:11:37.630Z,18.76
2017-10-27T01:11:51.022Z,18.81
2017-10-27T01:12:04.143Z,18.82
2017-10-27T01:12:17.079Z,18.76
2017-10-27T01:12:30.677Z,18.81
2017-10-27T01:12:44.146Z,18.79
2017-10-27T01:12:56.995Z,18.75
2017-10-27T01:13:10.478Z,18.75
2017-10-27T01:13:23.347Z,18.76
2017-10-27T01:13:36.224Z,18.79
2017-10-27T01:13:49.100Z,18.84
2017-10-27T01:14:00.920Z,18.84
2017-10-27T01:14:14.390Z,18.78
2017-10-27T01:14:27.851Z,18.89
2017-10-27T01:14:40.760Z,18.79
2017-10-27T01:14:54.216Z,18.82
2017-10-27T01:15:07.119Z,18.86
2017-10-27T01:15:20.815Z,18.75
2017-10-27T01:15:33.747Z,18.82
2017-10-27T01:15:46.668Z,18.82
2017-10-27T01:15:59.533Z,18.84
2017-10-27T01:16:12.426Z,18.81
2017-10-27T01:16:24.770Z,18.86
2017-10-27T01:16:37.671Z,18.78
2017-10-27T01:16:51.075Z,18.79
2017-10-27T01:17:03.975Z,18.81
2017-10-27T01:17:17.398Z,18.76
2017-10-27T01:17:30.291Z,18.84
2017-10-27T01:17:43.714Z,18.84
2017-10-27T01:17:57.163Z,18.75
2017-10-27T01:18:10.569Z,18.84
2017-10-27T01:18:24.240Z,18.81
2017-10-27T01:18:36.542Z,18.79
2017-10-27T01:18:49.922Z,18.79
2017-10-27T01:19:03.390Z,18.71
2017-10-27T01:19:16.877Z,18.78
2017-10-27T01:19:29.734Z,18.75
2017-10-27T01:19:43.144Z,18.72
2017-10-27T01:19:56.083Z,18.75
2017-10-27T01:20:09.563Z,18.71
2017-10-27T01:20:21.939Z,18.71
2017-10-27T01:20:35.369Z,18.71
2017-10-27T01:20:48.847Z,18.69
2017-10-27T01:21:01.785Z,18.78
2017-10-27T01:21:14.704Z,18.65
2017-10-27T01:21:28.160Z,18.74
2017-10-27T01:21:40.526Z,18.76
2017-10-27T01:21:54.010Z,18.81
2017-10-27T01:22:07.460Z,18.81
2017-10-27T01:22:20.384Z,18.82
2017-10-27T01:22:33.874Z,18.87
2017-10-27T01:22:47.311Z,18.81
2017-10-27T01:23:00.232Z,18.81
2017-10-27T01:23:13.703Z,18.86
2017-10-27T01:23:27.091Z,18.81
2017-10-27T01:23:40.500Z,18.84
2017-10-27T01:23:53.363Z,18.87
2017-10-27T01:24:06.819Z,18.81
2017-10-27T01:24:19.200Z,18.82
2017-10-27T01:24:32.643Z,18.81
2017-10-27T01:24:46.073Z,18.78
2017-10-27T01:24:58.942Z,18.68
2017-10-27T01:25:12.396Z,18.71
2017-10-27T01:25:25.315Z,18.74
2017-10-27T01:25:38.777Z,18.69
2017-10-27T01:25:52.185Z,18.68
2017-10-27T01:26:05.600Z,18.68
2017-10-27T01:26:19.084Z,18.74
2017-10-27T01:26:31.975Z,18.74
2017-10-27T01:26:45.439Z,18.72
2017-10-27T01:26:58.875Z,18.71
2017-10-27T01:27:12.339Z,18.74
2017-10-27T01:27:25.805Z,18.68
2017-10-27T01:27:38.717Z,18.72
2017-10-27T01:27:51.588Z,18.69
2017-10-27T01:28:05.010Z,18.71
2017-10-27T01:28:18.491Z,18.68
2017-10-27T01:28:31.343Z,18.75
2017-10-27T01:28:44.776Z,18.75
2017-10-27T01:28:58.282Z,18.71
2017-10-27T01:29:11.237Z,18.79
2017-10-27T01:29:24.142Z,18.81
2017-10-27T01:29:37.589Z,18.79
2017-10-27T01:29:51.013Z,18.79
2017-10-27T01:30:05.114Z,18.78
2017-10-27T01:30:18.610Z,18.79
2017-10-27T01:30:32.054Z,18.78
2017-10-27T01:30:44.997Z,18.82
2017-10-27T01:30:57.865Z,18.72
2017-10-27T01:31:11.266Z,18.71
2017-10-27T01:31:24.127Z,18.74
2017-10-27T01:31:37.047Z,18.79
2017-10-27T01:31:49.930Z,18.66
2017-10-27T01:32:02.296Z,18.68
2017-10-27T01:32:15.766Z,18.68
2017-10-27T01:32:28.163Z,18.71
2017-10-27T01:32:41.025Z,18.74
2017-10-27T01:32:54.496Z,18.71
2017-10-27T01:33:07.379Z,18.71
2017-10-27T01:33:20.280Z,18.72
2017-10-27T01:33:33.814Z,18.74
2017-10-27T01:33:47.298Z,18.68
2017-10-27T01:34:00.214Z,18.74
2017-10-27T01:34:13.686Z,18.71
2017-10-27T01:34:26.586Z,18.72
2017-10-27T01:34:40.063Z,18.68
2017-10-27T01:34:53.547Z,18.68
2017-10-27T01:35:05.995Z,18.72
2017-10-27T01:35:19.416Z,18.72
2017-10-27T01:35:32.897Z,18.75
2017-10-27T01:35:46.295Z,18.72
2017-10-27T01:35:59.752Z,18.78
2017-10-27T01:36:13.183Z,18.72
2017-10-27T01:36:26.118Z,18.75
2017-10-27T01:36:39.057Z,18.69
2017-10-27T01:36:51.425Z,18.72
2017-10-27T01:37:04.883Z,18.68
2017-10-27T01:37:17.797Z,18.66
2017-10-27T01:37:31.238Z,18.76
2017-10-27T01:37:44.723Z,18.76
2017-10-27T01:37:57.081Z,18.71
2017-10-27T01:38:10.483Z,18.74
2017-10-27T01:38:23.372Z,18.69
2017-10-27T01:38:36.242Z,18.76
2017-10-27T01:38:49.158Z,18.69
2017-10-27T01:39:02.815Z,18.68
2017-10-27T01:39:16.263Z,18.71
2017-10-27T01:39:29.207Z,18.71
2017-10-27T01:39:42.085Z,18.74
2017-10-27T01:39:55.476Z,18.71
2017-10-27T01:40:08.948Z,18.69
2017-10-27T01:40:21.906Z,18.72
2017-10-27T01:40:35.326Z,18.71
2017-10-27T01:40:48.769Z,18.68
2017-10-27T01:41:02.285Z,18.72
2017-10-27T01:41:15.198Z,18.66
2017-10-27T01:41:28.095Z,18.68
2017-10-27T01:41:41.564Z,18.68
2017-10-27T01:41:54.463Z,18.68
2017-10-27T01:42:06.846Z,18.65
2017-10-27T01:42:19.670Z,18.69
2017-10-27T01:42:33.086Z,18.68
2017-10-27T01:42:46.007Z,18.65
2017-10-27T01:42:59.412Z,18.71
2017-10-27T01:43:12.870Z,18.69
2017-10-27T01:43:25.761Z,18.68
2017-10-27T01:43:38.928Z,18.66
2017-10-27T01:43:52.366Z,18.68
2017-10-27T01:44:05.257Z,18.68
2017-10-27T01:44:18.722Z,18.72
2017-10-27T01:44:32.094Z,18.68
2017-10-27T01:44:45.245Z,18.68
2017-10-27T01:44:58.153Z,18.66
2017-10-27T01:45:11.240Z,18.65
2017-10-27T01:45:24.125Z,18.66
2017-10-27T01:45:36.964Z,18.66
2017-10-27T01:45:50.428Z,18.66
2017-10-27T01:46:03.824Z,18.65
2017-10-27T01:46:16.712Z,18.69
2017-10-27T01:46:29.567Z,18.69
2017-10-27T01:46:42.520Z,18.66
2017-10-27T01:46:55.396Z,18.68
2017-10-27T01:47:08.370Z,18.69
2017-10-27T01:47:21.300Z,18.68
2017-10-27T01:47:34.748Z,18.69
2017-10-27T01:47:47.716Z,18.61
2017-10-27T01:48:00.614Z,18.66
2017-10-27T01:48:14.084Z,18.65
2017-10-27T01:48:27.599Z,18.69
2017-10-27T01:48:41.104Z,18.66
2017-10-27T01:48:53.988Z,18.61
2017-10-27T01:49:07.431Z,18.65
2017-10-27T01:49:20.347Z,18.71
2017-10-27T01:49:32.687Z,18.66
2017-10-27T01:49:46.127Z,18.66
2017-10-27T01:49:59.064Z,18.68
2017-10-27T01:50:12.618Z,18.66
2017-10-27T01:50:26.116Z,18.69
2017-10-27T01:50:39.016Z,18.71
2017-10-27T01:50:52.437Z,18.71
2017-10-27T01:51:05.283Z,18.63
2017-10-27T01:51:18.749Z,18.69
2017-10-27T01:51:31.135Z,18.65
2017-10-27T01:51:44.551Z,18.68
2017-10-27T01:51:57.987Z,18.69
2017-10-27T01:52:11.391Z,18.66
2017-10-27T01:52:24.820Z,18.69
2017-10-27T01:52:38.272Z,18.66
2017-10-27T01:52:51.172Z,18.66
2017-10-27T01:53:04.581Z,18.68
2017-10-27T01:53:17.690Z,18.71
2017-10-27T01:53:31.177Z,18.71
2017-10-27T01:53:44.641Z,18.66
2017-10-27T01:53:58.072Z,18.68
2017-10-27T01:54:10.985Z,18.69
2017-10-27T01:54:23.352Z,18.74
2017-10-27T01:54:36.768Z,18.71
2017-10-27T01:54:49.705Z,18.74
2017-10-27T01:55:03.237Z,18.69
2017-10-27T01:55:15.570Z,18.71
2017-10-27T01:55:29.045Z,18.72
2017-10-27T01:55:42.429Z,18.72
2017-10-27T01:55:55.887Z,18.66
2017-10-27T01:56:09.362Z,18.66
2017-10-27T01:56:22.804Z,18.71
2017-10-27T01:56:36.299Z,18.71
2017-10-27T01:56:49.265Z,18.66
2017-10-27T01:57:02.679Z,18.65
2017-10-27T01:57:16.085Z,18.71
2017-10-27T01:57:29.056Z,18.69
2017-10-27T01:57:42.501Z,18.66
2017-10-27T01:57:55.602Z,18.66
2017-10-27T01:58:07.981Z,18.69
2017-10-27T01:58:20.880Z,18.71
2017-10-27T01:58:33.823Z,18.68
2017-10-27T01:58:45.621Z,18.69
2017-10-27T01:58:57.933Z,18.68
2017-10-27T01:59:11.565Z,18.65
2017-10-27T01:59:24.492Z,18.71
2017-10-27T01:59:37.925Z,18.69
2017-10-27T01:59:51.352Z,18.66
2017-10-27T02:00:04.761Z,18.66
2017-10-27T02:00:18.843Z,18.65
2017-10-27T02:00:32.334Z,18.65
2017-10-27T02:00:45.761Z,18.69
2017-10-27T02:00:59.174Z,18.63
2017-10-27T02:01:12.623Z,18.71
2017-10-27T02:01:26.078Z,18.76
2017-10-27T02:01:39.563Z,18.74
2017-10-27T02:01:52.978Z,18.74
2017-10-27T02:02:06.444Z,18.66
2017-10-27T02:02:19.861Z,18.66
2017-10-27T02:02:33.348Z,18.66
2017-10-27T02:02:46.210Z,18.69
2017-10-27T02:02:58.540Z,18.69
2017-10-27T02:03:11.971Z,18.66
2017-10-27T02:03:25.496Z,18.71
2017-10-27T02:03:38.944Z,18.71
2017-10-27T02:03:52.408Z,18.74
2017-10-27T02:04:18.630Z,18.82
2017-10-27T02:04:32.294Z,18.68
2017-10-27T02:04:45.774Z,18.78
2017-10-27T02:04:59.254Z,18.78
2017-10-27T02:05:12.927Z,18.66
2017-10-27T02:05:25.831Z,18.76
2017-10-27T02:05:39.304Z,18.78
2017-10-27T02:05:52.741Z,18.78
2017-10-27T02:06:06.206Z,18.71
2017-10-27T02:06:19.658Z,18.76
2017-10-27T02:06:32.532Z,18.66
2017-10-27T02:06:46.166Z,18.84
2017-10-27T02:06:59.638Z,18.79
2017-10-27T02:07:13.134Z,18.78
2017-10-27T02:07:26.800Z,18.79
2017-10-27T02:07:40.210Z,18.71
2017-10-27T02:07:53.653Z,18.74
2017-10-27T02:08:07.101Z,18.72
2017-10-27T02:08:20.738Z,18.71
2017-10-27T02:08:34.245Z,18.66
2017-10-27T02:08:47.658Z,18.72
2017-10-27T02:09:01.120Z,18.71
2017-10-27T02:09:14.556Z,18.71
2017-10-27T02:09:28.053Z,18.68
2017-10-27T02:09:41.526Z,18.68
2017-10-27T02:09:54.476Z,18.65
2017-10-27T02:10:07.942Z,18.68
2017-10-27T02:10:21.003Z,18.57
2017-10-27T02:10:34.438Z,18.57
2017-10-27T02:10:47.896Z,18.59
2017-10-27T02:11:01.333Z,18.59
2017-10-27T02:11:14.243Z,18.63
2017-10-27T02:11:26.051Z,18.57
2017-10-27T02:11:39.507Z,18.61
2017-10-27T02:11:52.940Z,18.57
2017-10-27T02:12:05.894Z,18.51
2017-10-27T02:12:19.348Z,18.54
2017-10-27T02:12:32.784Z,18.5
2017-10-27T02:12:46.259Z,18.53
2017-10-27T02:12:59.770Z,18.5
2017-10-27T02:13:12.710Z,18.47
2017-10-27T02:13:26.141Z,18.47
2017-10-27T02:13:39.594Z,18.42
2017-10-27T02:13:52.525Z,18.42
2017-10-27T02:14:05.375Z,18.39
2017-10-27T02:14:18.848Z,18.42
2017-10-27T02:14:31.746Z,18.44
2017-10-27T02:14:45.191Z,18.45
2017-10-27T02:14:58.614Z,18.44
2017-10-27T02:15:12.124Z,18.39
2017-10-27T02:15:26.130Z,18.45
2017-10-27T02:15:38.476Z,18.47
2017-10-27T02:15:51.883Z,18.47
2017-10-27T02:16:06.952Z,18.42
2017-10-27T02:16:20.101Z,18.42
2017-10-27T02:16:33.556Z,18.45
2017-10-27T02:16:47.007Z,18.44
2017-10-27T02:17:00.461Z,18.42
2017-10-27T02:17:13.930Z,18.45
2017-10-27T02:17:26.801Z,18.45
2017-10-27T02:17:39.705Z,18.42
2017-10-27T02:17:52.674Z,18.39
2017-10-27T02:18:06.134Z,18.36
2017-10-27T02:18:19.623Z,18.41
2017-10-27T02:18:33.096Z,18.39
2017-10-27T02:18:46.496Z,18.39
2017-10-27T02:18:59.950Z,18.36
2017-10-27T02:19:13.377Z,18.36
2017-10-27T02:19:28.134Z,18.35
2017-10-27T02:19:41.578Z,18.39
2017-10-27T02:19:55.032Z,18.27
2017-10-27T02:20:08.165Z,18.29
2017-10-27T02:20:21.726Z,18.35
2017-10-27T02:20:34.801Z,18.35
2017-10-27T02:20:48.279Z,18.35
2017-10-27T02:21:01.737Z,18.31
2017-10-27T02:21:14.608Z,18.34
2017-10-27T02:21:27.529Z,18.31
2017-10-27T02:21:41.018Z,18.36
2017-10-27T02:21:54.458Z,18.35
2017-10-27T02:22:07.369Z,18.35
2017-10-27T02:22:20.775Z,18.35
2017-10-27T02:22:33.673Z,18.31
2017-10-27T02:22:46.065Z,18.32
2017-10-27T02:22:59.475Z,18.31
2017-10-27T02:23:12.357Z,18.36
2017-10-27T02:23:25.256Z,18.39
2017-10-27T02:23:38.692Z,18.36
2017-10-27T02:23:51.089Z,18.41
2017-10-27T02:24:04.565Z,18.34
2017-10-27T02:24:18.013Z,18.39
2017-10-27T02:24:30.903Z,18.36
2017-10-27T02:24:44.303Z,18.36
2017-10-27T02:24:57.788Z,18.42
2017-10-27T02:25:11.253Z,18.45
2017-10-27T02:25:24.734Z,18.42
2017-10-27T02:25:37.659Z,18.41
2017-10-27T02:25:51.036Z,18.38
2017-10-27T02:26:03.402Z,18.42
2017-10-27T02:26:16.794Z,18.38
2017-10-27T02:26:30.240Z,18.42
2017-10-27T02:26:42.052Z,18.34
2017-10-27T02:26:55.534Z,18.35
2017-10-27T02:27:08.926Z,18.38
2017-10-27T02:27:21.313Z,18.45
2017-10-27T02:27:34.754Z,18.38
2017-10-27T02:27:48.169Z,18.38
2017-10-27T02:28:01.561Z,18.36
2017-10-27T02:28:15.027Z,18.26
2017-10-27T02:28:28.463Z,18.36
2017-10-27T02:28:41.884Z,18.34
2017-10-27T02:28:55.517Z,18.32
2017-10-27T02:29:08.994Z,18.34
2017-10-27T02:29:22.513Z,18.41
2017-10-27T02:29:35.973Z,18.29
2017-10-27T02:29:49.397Z,18.39
2017-10-27T02:30:02.325Z,18.39
2017-10-27T02:30:15.247Z,18.34
2017-10-27T02:30:28.784Z,18.38
2017-10-27T02:30:41.677Z,18.39
2017-10-27T02:30:55.138Z,18.41
2017-10-27T02:31:07.523Z,18.38
2017-10-27T02:31:20.976Z,18.41
2017-10-27T02:31:34.611Z,18.49
2017-10-27T02:31:47.506Z,18.36
2017-10-27T02:32:00.407Z,18.38
2017-10-27T02:32:13.334Z,18.38
2017-10-27T02:32:26.774Z,18.35
2017-10-27T02:32:39.683Z,18.38
2017-10-27T02:32:53.146Z,18.34
2017-10-27T02:33:05.999Z,18.39
2017-10-27T02:33:19.420Z,18.41
2017-10-27T02:33:32.353Z,18.42
2017-10-27T02:33:45.243Z,18.42
2017-10-27T02:33:58.681Z,18.44
2017-10-27T02:34:11.591Z,18.41
2017-10-27T02:34:25.070Z,18.35
2017-10-27T02:34:38.601Z,18.42
2017-10-27T02:34:52.010Z,18.35
2017-10-27T02:35:05.460Z,18.38
2017-10-27T02:35:18.861Z,18.38
2017-10-27T02:35:31.802Z,18.38
2017-10-27T02:35:45.310Z,18.39
2017-10-27T02:35:58.219Z,18.36
2017-10-27T02:36:11.138Z,18.44
2017-10-27T02:36:24.594Z,18.39
2017-10-27T02:36:36.936Z,18.36
2017-10-27T02:36:49.844Z,18.39
2017-10-27T02:37:02.807Z,18.39
2017-10-27T02:37:15.893Z,18.36
2017-10-27T02:37:29.346Z,18.41
2017-10-27T02:37:42.816Z,18.38
2017-10-27T02:37:55.746Z,18.41
2017-10-27T02:38:07.609Z,18.41
2017-10-27T02:38:21.079Z,18.39
2017-10-27T02:38:34.011Z,18.38
2017-10-27T02:38:46.947Z,18.38
2017-10-27T02:39:00.457Z,18.34
2017-10-27T02:39:13.366Z,18.38
2017-10-27T02:39:26.280Z,18.36
2017-10-27T02:39:39.738Z,18.36
2017-10-27T02:39:52.671Z,18.36
2017-10-27T02:40:06.122Z,18.47
2017-10-27T02:40:19.039Z,18.36
2017-10-27T02:40:32.454Z,18.36
2017-10-27T02:40:45.310Z,18.38
2017-10-27T02:40:58.247Z,18.36
2017-10-27T02:41:11.184Z,18.42
2017-10-27T02:41:23.583Z,18.39
2017-10-27T02:41:37.049Z,18.38
2017-10-27T02:41:49.425Z,18.39
2017-10-27T02:42:02.809Z,18.35
2017-10-27T02:42:15.702Z,18.44
2017-10-27T02:42:29.154Z,18.31
2017-10-27T02:42:42.042Z,18.36
2017-10-27T02:42:54.982Z,18.36
2017-10-27T02:43:08.457Z,18.41
2017-10-27T02:43:21.323Z,18.34
2017-10-27T02:43:34.258Z,18.38
2017-10-27T02:43:47.742Z,18.27
2017-10-27T02:44:01.191Z,18.35
2017-10-27T02:44:14.120Z,18.44
2017-10-27T02:44:27.542Z,18.34
2017-10-27T02:44:41.046Z,18.35
2017-10-27T02:44:54.484Z,18.5
2017-10-27T02:45:07.376Z,18.39
2017-10-27T02:45:20.831Z,18.41
2017-10-27T02:45:34.471Z,18.38
2017-10-27T02:45:46.832Z,18.36
2017-10-27T02:46:00.291Z,18.36
2017-10-27T02:46:13.759Z,18.39
2017-10-27T02:46:26.701Z,18.42
2017-10-27T02:46:40.105Z,18.35
2017-10-27T02:46:53.037Z,18.38
2017-10-27T02:47:06.514Z,18.36
2017-10-27T02:47:19.373Z,18.42
2017-10-27T02:47:32.317Z,18.47
2017-10-27T02:47:45.722Z,18.38
2017-10-27T02:47:59.164Z,18.38
2017-10-27T02:48:12.094Z,18.41
2017-10-27T02:48:25.044Z,18.34
2017-10-27T02:48:37.908Z,18.35
2017-10-27T02:48:50.834Z,18.36
2017-10-27T02:49:04.319Z,18.39
2017-10-27T02:49:17.211Z,18.39
2017-10-27T02:49:29.558Z,18.42
2017-10-27T02:49:42.386Z,18.44
2017-10-27T02:49:55.317Z,18.42
2017-10-27T02:50:08.774Z,18.39